createdAt,value
2016-09-03T00:04:26.727Z,22.38
2016-09-03T00:09:23.242Z,22.44
2016-09-03T00:14:20.237Z,22.25
2016-09-03T00:19:16.815Z,22.25
2016-09-03T00:24:13.313Z,22.39
2016-09-03T00:29:09.917Z,22.25
2016-09-03T00:34:06.474Z,22.30
2016-09-03T00:39:03.006Z,22.23
2016-09-03T00:43:59.745Z,22.15
2016-09-03T00:48:56.316Z,22.26
2016-09-03T00:53:52.972Z,22.18
2016-09-03T00:58:49.575Z,22.20
2016-09-03T01:03:46.663Z,22.11
2016-09-03T01:08:44.797Z,22.28
2016-09-03T01:13:41.201Z,22.18
2016-09-03T01:18:37.902Z,22.28
2016-09-03T01:23:34.458Z,22.17
2016-09-03T01:28:30.974Z,22.20
2016-09-03T01:33:27.566Z,22.13
2016-09-03T01:38:24.181Z,22.15
2016-09-03T01:43:20.798Z,22.13
2016-09-03T01:48:17.352Z,22.11
2016-09-03T01:53:13.949Z,22.00
2016-09-03T01:58:10.756Z,22.22
2016-09-03T02:03:07.847Z,22.14
2016-09-03T02:08:05.054Z,22.22
2016-09-03T02:13:01.391Z,22.20
2016-09-03T02:17:57.942Z,22.06
2016-09-03T02:22:56.779Z,22.14
2016-09-03T02:27:52.816Z,21.98
2016-09-03T02:32:49.293Z,22.07
2016-09-03T02:37:46.000Z,21.91
2016-09-03T02:42:42.627Z,21.92
2016-09-03T02:47:39.105Z,21.93
2016-09-03T02:52:38.571Z,21.96
2016-09-03T02:57:34.587Z,21.89
2016-09-03T03:02:31.242Z,21.79
2016-09-03T03:07:27.835Z,21.72
2016-09-03T03:12:24.616Z,21.73
2016-09-03T03:17:21.089Z,21.79
2016-09-03T03:22:18.147Z,21.76
2016-09-03T03:27:14.711Z,21.69
2016-09-03T03:32:11.368Z,21.58
2016-09-03T03:37:08.234Z,21.67
2016-09-03T03:42:04.880Z,21.55
2016-09-03T03:47:01.350Z,21.66
2016-09-03T03:51:58.276Z,21.66
2016-09-03T03:56:54.976Z,21.73
2016-09-03T04:01:51.356Z,21.60
2016-09-03T04:06:48.224Z,21.67
2016-09-03T04:11:44.591Z,21.51
2016-09-03T04:16:41.141Z,21.60
2016-09-03T04:21:37.861Z,21.62
2016-09-03T04:26:34.314Z,21.64
2016-09-03T04:31:30.729Z,21.62
2016-09-03T04:36:27.387Z,21.58
2016-09-03T04:41:24.018Z,21.58
2016-09-03T04:46:20.876Z,21.62
2016-09-03T04:51:17.525Z,21.54
2016-09-03T04:56:13.921Z,21.60
2016-09-03T05:01:10.451Z,21.46
2016-09-03T05:06:07.298Z,21.52
2016-09-03T05:11:03.909Z,21.42
2016-09-03T05:16:00.427Z,21.48
2016-09-03T05:20:56.942Z,21.46
2016-09-03T05:25:53.621Z,21.43
2016-09-03T05:30:50.096Z,21.46
2016-09-03T05:35:48.185Z,21.48
2016-09-03T05:40:44.382Z,21.77
2016-09-03T05:45:41.135Z,21.77
2016-09-03T05:50:40.426Z,21.73
2016-09-03T05:55:36.194Z,21.82
2016-09-03T06:00:33.178Z,21.76
2016-09-03T06:05:30.154Z,21.87
2016-09-03T06:10:26.774Z,21.80
2016-09-03T06:15:23.439Z,21.75
2016-09-03T06:20:20.046Z,21.75
2016-09-03T06:25:16.737Z,21.72
2016-09-03T06:30:13.513Z,21.77
2016-09-03T06:35:10.116Z,21.66
2016-09-03T06:40:07.182Z,21.77
2016-09-03T06:45:04.288Z,21.77
2016-09-03T06:50:00.901Z,21.79
2016-09-03T06:54:57.692Z,21.98
2016-09-03T06:59:54.931Z,22.04
2016-09-03T07:04:51.472Z,22.11
2016-09-03T07:09:47.964Z,22.17
2016-09-03T07:14:44.535Z,22.15
2016-09-03T07:19:41.312Z,22.25
2016-09-03T07:24:39.523Z,22.36
2016-09-03T07:29:36.370Z,22.38
2016-09-03T07:34:33.305Z,22.60
2016-09-03T07:39:30.212Z,22.55
2016-09-03T07:44:27.190Z,22.76
2016-09-03T07:49:24.143Z,22.72
2016-09-03T07:54:21.260Z,23.05
2016-09-03T07:59:19.599Z,23.23
2016-09-03T08:04:16.254Z,23.27
2016-09-03T08:09:13.191Z,23.28
2016-09-03T08:14:13.115Z,23.69
2016-09-03T08:19:09.179Z,23.74
2016-09-03T08:24:05.791Z,23.66
2016-09-03T08:29:02.270Z,23.56
2016-09-03T08:33:58.996Z,23.56
2016-09-03T08:38:55.685Z,23.66
2016-09-03T08:43:52.584Z,23.74
2016-09-03T08:48:49.087Z,23.55
2016-09-03T08:53:45.624Z,23.36
2016-09-03T08:58:42.352Z,23.46
2016-09-03T09:03:38.907Z,23.23
2016-09-03T09:08:35.376Z,23.06
2016-09-03T09:13:31.928Z,22.88
2016-09-03T09:18:28.406Z,23.00
2016-09-03T09:23:24.925Z,23.17
2016-09-03T09:28:21.952Z,23.20
2016-09-03T09:33:18.627Z,23.05
2016-09-03T09:38:15.200Z,22.76
2016-09-03T09:43:12.697Z,22.78
2016-09-03T09:48:09.476Z,22.80
2016-09-03T09:53:06.207Z,22.84
2016-09-03T09:58:02.872Z,22.99
2016-09-03T10:03:02.377Z,22.90
2016-09-03T10:07:58.468Z,22.76
2016-09-03T10:12:55.043Z,22.78
2016-09-03T10:17:51.710Z,22.88
2016-09-03T10:22:48.485Z,22.85
2016-09-03T10:27:45.136Z,22.90
2016-09-03T10:32:41.917Z,23.03
2016-09-03T10:37:38.969Z,23.15
2016-09-03T10:42:35.835Z,23.09
2016-09-03T10:47:32.442Z,23.25
2016-09-03T10:52:31.593Z,23.15
2016-09-03T10:57:27.666Z,23.36
2016-09-03T11:02:24.439Z,23.40
2016-09-03T11:07:21.217Z,23.54
2016-09-03T11:12:20.247Z,23.50
2016-09-03T11:17:16.328Z,23.56
2016-09-03T11:22:13.031Z,23.56
2016-09-03T11:27:09.987Z,23.63
2016-09-03T11:32:08.350Z,23.68
2016-09-03T11:37:04.697Z,23.77
2016-09-03T11:42:01.381Z,23.74
2016-09-03T11:46:58.101Z,23.80
2016-09-03T11:51:54.781Z,23.95
2016-09-03T11:56:51.605Z,23.99
2016-09-03T12:01:48.359Z,23.91
2016-09-03T12:06:45.060Z,23.88
2016-09-03T12:11:41.809Z,24.01
2016-09-03T12:16:38.647Z,23.98
2016-09-03T12:21:36.899Z,24.10
2016-09-03T12:26:33.381Z,24.10
2016-09-03T12:31:30.648Z,24.21
2016-09-03T12:36:27.159Z,24.26
2016-09-03T12:41:25.453Z,24.20
2016-09-03T12:46:21.678Z,24.13
2016-09-03T12:51:18.270Z,24.01
2016-09-03T12:56:14.875Z,24.02
2016-09-03T13:01:11.605Z,24.11
2016-09-03T13:06:08.145Z,24.14
2016-09-03T13:11:05.137Z,24.10
2016-09-03T13:16:01.796Z,24.17
2016-09-03T13:20:58.407Z,24.16
2016-09-03T13:25:56.133Z,24.21
2016-09-03T13:30:52.660Z,24.28
2016-09-03T13:35:49.330Z,24.36
2016-09-03T13:40:46.493Z,24.36
2016-09-03T13:45:43.150Z,24.40
2016-09-03T13:50:39.800Z,24.21
2016-09-03T13:55:36.890Z,24.42
2016-09-03T14:00:33.469Z,24.36
2016-09-03T14:05:30.161Z,24.50
2016-09-03T14:10:26.723Z,24.60
2016-09-03T14:15:23.523Z,24.48
2016-09-03T14:20:20.174Z,24.54
2016-09-03T14:25:17.367Z,24.51
2016-09-03T14:30:16.445Z,24.40
2016-09-03T14:35:12.624Z,24.39
2016-09-03T14:40:09.664Z,24.51
2016-09-03T14:45:06.256Z,24.57
2016-09-03T14:50:02.906Z,24.47
2016-09-03T14:54:59.584Z,24.47
2016-09-03T14:59:57.210Z,24.50
2016-09-03T15:04:54.144Z,24.55
2016-09-03T15:09:50.672Z,24.45
2016-09-03T15:14:47.271Z,24.53
2016-09-03T15:19:43.917Z,24.35
2016-09-03T15:24:40.598Z,24.35
2016-09-03T15:29:37.501Z,24.28
2016-09-03T15:34:34.263Z,24.29
2016-09-03T15:39:31.005Z,24.26
2016-09-03T15:44:27.702Z,24.24
2016-09-03T15:49:25.575Z,24.14
2016-09-03T15:54:22.070Z,24.20
2016-09-03T15:59:18.821Z,24.26
2016-09-03T16:04:15.428Z,24.23
2016-09-03T16:09:11.853Z,24.18
2016-09-03T16:14:08.701Z,24.11
2016-09-03T16:19:05.842Z,24.01
2016-09-03T16:24:02.504Z,23.91
2016-09-03T16:28:58.959Z,23.98
2016-09-03T16:33:55.807Z,24.06
2016-09-03T16:38:53.060Z,24.02
2016-09-03T16:43:49.655Z,24.05
2016-09-03T16:48:46.164Z,24.08
2016-09-03T16:53:42.682Z,24.21
2016-09-03T16:58:39.472Z,24.16
2016-09-03T17:03:36.603Z,24.13
2016-09-03T17:08:35.893Z,24.03
2016-09-03T17:13:31.996Z,24.06
2016-09-03T17:18:28.652Z,23.95
2016-09-03T17:23:24.953Z,23.74
2016-09-03T17:33:21.698Z,23.73
2016-09-03T17:38:18.322Z,23.81
2016-09-03T17:43:15.150Z,23.93
2016-09-03T17:48:13.226Z,24.28
2016-09-03T17:53:09.568Z,24.36
2016-09-03T17:58:06.291Z,24.65
2016-09-03T18:03:03.064Z,24.55
2016-09-03T18:07:59.826Z,24.40
2016-09-03T18:12:56.416Z,24.35
2016-09-03T18:17:53.489Z,24.20
2016-09-03T18:22:50.096Z,24.01
2016-09-03T18:27:47.035Z,23.86
2016-09-03T18:32:43.577Z,23.63
2016-09-03T18:37:40.488Z,23.59
2016-09-03T18:42:36.896Z,23.55
2016-09-03T18:47:33.470Z,23.46
2016-09-03T18:52:29.973Z,23.34
2016-09-03T18:57:26.546Z,23.31
2016-09-03T19:02:23.111Z,23.21
2016-09-03T19:07:19.745Z,23.21
2016-09-03T19:12:16.365Z,23.05
2016-09-03T19:17:14.318Z,23.06
2016-09-03T19:22:10.650Z,22.96
2016-09-03T19:27:07.436Z,22.98
2016-09-03T19:32:05.264Z,22.90
2016-09-03T19:37:01.565Z,22.81
2016-09-03T19:41:58.186Z,22.87
2016-09-03T19:46:55.195Z,22.96
2016-09-03T19:51:52.078Z,22.98
2016-09-03T19:56:49.012Z,22.88
2016-09-03T20:01:45.726Z,22.87
2016-09-03T20:06:42.391Z,22.83
2016-09-03T20:11:40.436Z,22.80
2016-09-03T20:16:36.771Z,22.76
2016-09-03T20:21:33.885Z,22.84
2016-09-03T20:26:30.934Z,22.80
2016-09-03T20:31:27.512Z,22.84
2016-09-03T20:36:24.096Z,22.76
2016-09-03T20:41:20.554Z,22.76
2016-09-03T20:46:17.171Z,22.73
2016-09-03T20:51:14.212Z,22.81
2016-09-03T20:56:10.837Z,22.78
2016-09-03T21:01:07.561Z,22.78
2016-09-03T21:06:04.116Z,22.72
2016-09-03T21:11:01.112Z,22.72
2016-09-03T21:15:57.705Z,22.73
2016-09-03T21:20:54.285Z,22.66
2016-09-03T21:25:51.246Z,22.59
2016-09-03T21:30:47.948Z,22.47
2016-09-03T21:35:44.532Z,22.47
2016-09-03T21:40:44.022Z,22.44
2016-09-03T21:45:40.086Z,22.50
2016-09-03T21:50:36.758Z,22.43
2016-09-03T21:55:33.423Z,22.43
2016-09-03T22:00:30.221Z,22.53
2016-09-03T22:05:27.285Z,22.53
2016-09-03T22:10:23.860Z,22.53
2016-09-03T22:15:20.437Z,22.54
2016-09-03T22:20:16.889Z,22.33
2016-09-03T22:25:13.608Z,22.32
2016-09-03T22:30:10.367Z,22.50
2016-09-03T22:35:07.350Z,22.47
2016-09-03T22:40:04.128Z,22.47
2016-09-03T22:45:00.741Z,22.45
2016-09-03T22:49:58.867Z,22.47
2016-09-03T22:54:55.205Z,22.39
2016-09-03T22:59:52.019Z,22.35
2016-09-03T23:04:48.776Z,22.36
2016-09-03T23:09:45.284Z,22.28
2016-09-03T23:14:41.835Z,22.35
2016-09-03T23:19:38.505Z,22.44
2016-09-03T23:24:35.144Z,22.44
2016-09-03T23:29:31.618Z,22.36
2016-09-03T23:34:28.296Z,22.44
2016-09-03T23:39:25.193Z,22.39
2016-09-03T23:44:21.624Z,22.33
2016-09-03T23:49:18.194Z,22.36
2016-09-03T23:54:14.833Z,22.29
2016-09-03T23:59:11.426Z,22.25
